createdAt,value
2023-05-27T00:01:21.334Z,99.90
2023-05-27T00:03:48.115Z,99.90
2023-05-27T00:06:15.680Z,99.90
2023-05-27T00:08:42.327Z,99.90
2023-05-27T00:11:09.693Z,99.90
2023-05-27T00:13:36.538Z,99.90
2023-05-27T00:16:03.998Z,99.90
2023-05-27T00:18:33.885Z,99.90
2023-05-27T00:21:01.185Z,99.90
2023-05-27T00:23:27.910Z,99.90
2023-05-27T00:25:55.206Z,99.90
2023-05-27T00:28:22.105Z,99.90
2023-05-27T00:30:49.494Z,99.90
2023-05-27T00:33:17.298Z,99.90
2023-05-27T00:35:44.608Z,99.90
2023-05-27T00:38:11.308Z,99.90
2023-05-27T00:40:41.170Z,99.90
2023-05-27T00:43:08.375Z,99.90
2023-05-27T00:45:36.085Z,99.90
2023-05-27T00:48:04.184Z,99.90
2023-05-27T00:50:32.196Z,99.90
2023-05-27T00:52:59.452Z,99.90
2023-05-27T00:55:26.888Z,99.90
2023-05-27T00:57:55.611Z,99.90
2023-05-27T01:00:23.857Z,99.90
2023-05-27T01:02:51.765Z,99.90
2023-05-27T01:05:22.770Z,99.90
2023-05-27T01:08:12.746Z,99.90
2023-05-27T01:10:46.447Z,99.90
2023-05-27T01:13:17.382Z,99.90
2023-05-27T01:15:46.016Z,99.90
2023-05-27T01:18:17.742Z,99.90
2023-05-27T01:20:48.725Z,99.90
2023-05-27T01:23:15.961Z,99.90
2023-05-27T01:25:43.492Z,99.90
2023-05-27T01:28:10.327Z,99.90
2023-05-27T01:30:37.776Z,99.90
2023-05-27T01:33:10.604Z,99.90
2023-05-27T01:35:44.059Z,99.90
2023-05-27T01:38:18.654Z,99.90
2023-05-27T01:40:48.576Z,99.90
2023-05-27T01:43:16.150Z,99.90
2023-05-27T01:45:44.268Z,99.90
2023-05-27T01:48:11.266Z,99.90
2023-05-27T01:50:39.128Z,99.90
2023-05-27T01:53:07.335Z,99.90
2023-05-27T01:55:34.531Z,99.90
2023-05-27T01:58:01.883Z,99.90
2023-05-27T02:00:28.803Z,99.90
2023-05-27T02:02:57.029Z,99.90
2023-05-27T02:05:24.265Z,99.90
2023-05-27T02:07:51.617Z,99.90
2023-05-27T02:10:18.283Z,99.90
2023-05-27T02:12:46.003Z,99.90
2023-05-27T02:15:12.677Z,99.90
2023-05-27T02:17:40.240Z,99.90
2023-05-27T02:20:07.593Z,99.90
2023-05-27T02:22:36.270Z,99.90
2023-05-27T02:25:03.068Z,99.90
2023-05-27T02:27:30.424Z,99.90
2023-05-27T02:29:57.365Z,99.90
2023-05-27T02:32:26.010Z,99.90
2023-05-27T02:34:52.758Z,99.90
2023-05-27T02:37:20.619Z,99.90
2023-05-27T02:39:47.365Z,99.90
2023-05-27T02:42:14.654Z,99.90
2023-05-27T02:44:41.303Z,99.90
2023-05-27T02:47:08.748Z,99.90
2023-05-27T02:49:35.449Z,99.90
2023-05-27T02:52:02.730Z,99.90
2023-05-27T02:54:29.485Z,99.90
2023-05-27T02:56:56.828Z,99.90
2023-05-27T02:59:23.591Z,99.90
2023-05-27T03:01:50.986Z,99.90
2023-05-27T03:04:17.676Z,99.90
2023-05-27T03:06:44.990Z,99.90
2023-05-27T03:09:11.816Z,99.90
2023-05-27T03:11:38.848Z,99.90
2023-05-27T03:14:06.092Z,99.90
2023-05-27T03:16:32.990Z,99.90
2023-05-27T03:19:00.695Z,99.90
2023-05-27T03:21:27.861Z,99.90
2023-05-27T03:23:55.217Z,99.90
2023-05-27T03:26:22.869Z,99.90
2023-05-27T03:28:51.371Z,99.90
2023-05-27T03:31:18.098Z,99.90
2023-05-27T03:34:11.391Z,99.90
2023-05-27T03:36:40.604Z,99.90
2023-05-27T03:39:08.078Z,99.90
2023-05-27T03:41:37.410Z,99.90
2023-05-27T03:44:04.307Z,99.90
2023-05-27T03:46:32.748Z,99.90
2023-05-27T03:48:59.471Z,99.90
2023-05-27T03:51:26.983Z,99.90
2023-05-27T03:53:54.400Z,99.90
2023-05-27T03:56:21.056Z,99.90
2023-05-27T03:58:49.331Z,99.90
2023-05-27T04:01:17.841Z,99.90
2023-05-27T04:03:45.220Z,99.90
2023-05-27T04:06:13.264Z,99.90
2023-05-27T04:08:42.131Z,99.90
2023-05-27T04:11:13.820Z,99.90
2023-05-27T04:13:41.772Z,99.90
2023-05-27T04:16:08.580Z,99.90
2023-05-27T04:18:37.020Z,99.90
2023-05-27T04:21:04.066Z,99.90
2023-05-27T04:23:31.571Z,99.90
2023-05-27T04:25:58.840Z,99.90
2023-05-27T04:28:31.970Z,99.90
2023-05-27T04:30:58.745Z,99.90
2023-05-27T04:33:43.762Z,99.90
2023-05-27T04:36:10.831Z,99.90
2023-05-27T04:38:58.411Z,99.90
2023-05-27T04:41:28.535Z,99.90
2023-05-27T04:44:08.709Z,99.90
2023-05-27T04:46:41.309Z,99.90
2023-05-27T04:49:07.992Z,99.90
2023-05-27T04:51:37.283Z,99.90
2023-05-27T04:54:04.667Z,99.90
2023-05-27T04:56:33.913Z,99.90
2023-05-27T04:59:00.779Z,99.90
2023-05-27T05:01:50.215Z,99.90
2023-05-27T05:04:24.529Z,99.90
2023-05-27T05:06:57.589Z,99.90
2023-05-27T05:09:25.914Z,99.90
2023-05-27T05:11:53.202Z,99.90
2023-05-27T05:14:20.196Z,99.90
2023-05-27T05:16:48.398Z,99.90
2023-05-27T05:19:15.383Z,99.90
2023-05-27T05:21:42.956Z,99.90
2023-05-27T05:24:11.966Z,99.90
2023-05-27T05:26:41.389Z,99.90
2023-05-27T05:29:08.245Z,99.90
2023-05-27T05:31:35.948Z,99.90
2023-05-27T05:34:03.762Z,99.90
2023-05-27T05:36:34.434Z,99.90
2023-05-27T05:39:05.365Z,99.90
2023-05-27T05:41:34.746Z,99.90
2023-05-27T05:44:01.981Z,99.90
2023-05-27T05:46:29.300Z,99.60
2023-05-27T05:48:56.584Z,99.60
2023-05-27T05:51:34.031Z,98.50
2023-05-27T05:54:01.150Z,97.70
2023-05-27T05:56:30.183Z,97.20
2023-05-27T05:58:56.890Z,96.40
2023-05-27T06:01:28.287Z,95.80
2023-05-27T06:03:57.253Z,95.30
2023-05-27T06:06:32.104Z,95.10
2023-05-27T06:09:18.508Z,94.30
2023-05-27T06:11:47.048Z,93.90
2023-05-27T06:14:14.301Z,93.40
2023-05-27T06:16:42.713Z,92.50
2023-05-27T06:19:10.927Z,91.90
2023-05-27T06:21:38.322Z,92.30
2023-05-27T06:24:27.847Z,91.80
2023-05-27T06:27:17.961Z,91.20
2023-05-27T06:29:45.312Z,90.70
2023-05-27T06:32:13.403Z,90.60
2023-05-27T06:34:40.068Z,89.60
2023-05-27T06:37:08.202Z,88.10
2023-05-27T06:39:34.902Z,89.60
2023-05-27T06:42:02.862Z,88.70
2023-05-27T06:44:42.974Z,87.40
2023-05-27T06:47:19.932Z,85.40
2023-05-27T06:49:47.474Z,85.90
2023-05-27T06:52:15.297Z,86.10
2023-05-27T06:55:01.337Z,86.60
2023-05-27T06:57:51.867Z,84.90
2023-05-27T07:00:25.761Z,84.70
2023-05-27T07:03:15.420Z,84.50
2023-05-27T07:05:42.996Z,84.30
2023-05-27T07:08:09.824Z,83.30
2023-05-27T07:10:36.962Z,83.40
2023-05-27T07:13:03.624Z,83.80
2023-05-27T07:15:42.039Z,83.50
2023-05-27T07:18:08.910Z,82.50
2023-05-27T07:20:36.438Z,82.00
2023-05-27T07:23:06.881Z,82.70
2023-05-27T07:25:36.168Z,82.70
2023-05-27T07:28:03.026Z,83.10
2023-05-27T07:30:32.080Z,82.80
2023-05-27T07:33:02.156Z,82.60
2023-05-27T07:35:30.052Z,82.00
2023-05-27T07:37:57.098Z,82.30
2023-05-27T07:40:24.567Z,82.40
2023-05-27T07:42:51.496Z,81.50
2023-05-27T07:45:19.220Z,81.90
2023-05-27T07:47:47.244Z,82.10
2023-05-27T07:50:15.528Z,81.80
2023-05-27T07:52:43.984Z,81.90
2023-05-27T07:55:37.055Z,82.10
2023-05-27T07:58:03.772Z,81.80
2023-05-27T08:00:41.586Z,82.20
2023-05-27T08:03:08.350Z,82.00
2023-05-27T08:05:58.441Z,82.00
2023-05-27T08:08:45.804Z,82.20
2023-05-27T08:11:33.087Z,81.30
2023-05-27T08:14:00.242Z,82.70
2023-05-27T08:16:45.889Z,83.40
2023-05-27T08:19:24.410Z,84.30
2023-05-27T08:21:58.018Z,85.00
2023-05-27T08:24:44.117Z,85.30
2023-05-27T08:27:47.524Z,84.40
2023-05-27T08:30:24.490Z,84.70
2023-05-27T08:33:06.197Z,86.00
2023-05-27T08:35:33.522Z,86.70
2023-05-27T08:38:00.412Z,87.20
2023-05-27T08:40:31.873Z,86.60
2023-05-27T08:42:59.716Z,88.80
2023-05-27T08:45:27.923Z,90.60
2023-05-27T08:47:54.888Z,90.70
2023-05-27T08:50:29.463Z,90.80
2023-05-27T08:52:56.510Z,91.10
2023-05-27T08:55:27.511Z,91.60
2023-05-27T08:58:00.032Z,92.10
2023-05-27T09:00:30.027Z,92.30
2023-05-27T09:03:06.519Z,92.80
2023-05-27T09:05:35.192Z,93.00
2023-05-27T09:08:01.840Z,92.40
2023-05-27T09:10:40.173Z,93.20
2023-05-27T09:13:07.271Z,93.00
2023-05-27T09:15:36.059Z,92.70
2023-05-27T09:18:04.421Z,92.10
2023-05-27T09:20:32.388Z,92.20
2023-05-27T09:23:03.722Z,92.70
2023-05-27T09:25:31.330Z,93.00
2023-05-27T09:27:57.955Z,92.70
2023-05-27T09:30:26.724Z,92.50
2023-05-27T09:33:02.415Z,92.30
2023-05-27T09:35:29.723Z,91.80
2023-05-27T09:38:06.595Z,92.70
2023-05-27T09:40:37.184Z,92.90
2023-05-27T09:43:04.064Z,92.80
2023-05-27T09:45:32.638Z,92.50
2023-05-27T09:48:03.891Z,92.30
2023-05-27T09:50:33.073Z,92.50
2023-05-27T09:53:10.883Z,92.10
2023-05-27T09:55:39.420Z,91.80
2023-05-27T09:58:07.058Z,91.20
2023-05-27T10:00:35.100Z,91.10
2023-05-27T10:03:03.569Z,90.90
2023-05-27T10:05:31.488Z,91.00
2023-05-27T10:08:12.158Z,91.10
2023-05-27T10:10:46.439Z,90.90
2023-05-27T10:13:16.438Z,91.20
2023-05-27T10:15:49.829Z,90.80
2023-05-27T10:18:24.953Z,91.20
2023-05-27T10:20:53.050Z,90.10
2023-05-27T10:23:26.304Z,90.70
2023-05-27T10:25:58.257Z,91.30
2023-05-27T10:28:29.053Z,89.90
2023-05-27T10:31:12.845Z,90.30
2023-05-27T10:33:44.728Z,90.90
2023-05-27T10:36:15.055Z,90.20
2023-05-27T10:38:43.623Z,89.70
2023-05-27T10:41:11.188Z,88.70
2023-05-27T10:43:38.233Z,89.60
2023-05-27T10:46:10.701Z,88.70
2023-05-27T10:48:40.412Z,86.30
2023-05-27T10:51:09.276Z,85.10
2023-05-27T10:53:37.460Z,85.70
2023-05-27T10:56:05.355Z,85.10
2023-05-27T10:58:38.904Z,84.80
2023-05-27T11:01:15.797Z,84.40
2023-05-27T11:03:44.681Z,85.50
2023-05-27T11:06:12.793Z,85.90
2023-05-27T11:08:39.961Z,85.90
2023-05-27T11:11:08.825Z,85.70
2023-05-27T11:13:36.540Z,86.40
2023-05-27T11:16:06.082Z,86.40
2023-05-27T11:18:46.078Z,85.20
2023-05-27T11:21:17.234Z,84.20
2023-05-27T11:23:49.705Z,83.80
2023-05-27T11:26:22.931Z,84.00
2023-05-27T11:28:59.287Z,83.90
2023-05-27T11:31:31.582Z,83.30
2023-05-27T11:33:58.705Z,82.20
2023-05-27T11:36:33.139Z,82.60
2023-05-27T11:39:01.443Z,83.60
2023-05-27T11:41:31.254Z,82.70
2023-05-27T11:44:06.268Z,83.00
2023-05-27T11:46:44.718Z,82.40
2023-05-27T11:49:13.532Z,83.20
2023-05-27T11:51:42.860Z,82.20
2023-05-27T11:54:25.340Z,81.10
2023-05-27T11:56:54.801Z,82.60
2023-05-27T11:59:22.861Z,81.60
2023-05-27T12:01:51.052Z,81.70
2023-05-27T12:04:17.800Z,81.70
2023-05-27T12:06:46.772Z,82.20
2023-05-27T12:09:14.996Z,81.60
2023-05-27T12:11:42.301Z,81.20
2023-05-27T12:14:09.075Z,81.40
2023-05-27T12:16:36.703Z,80.90
2023-05-27T12:19:03.604Z,81.30
2023-05-27T12:21:30.561Z,81.60
2023-05-27T12:23:57.894Z,83.10
2023-05-27T12:26:25.726Z,81.10
2023-05-27T12:28:52.511Z,81.90
2023-05-27T12:31:19.953Z,82.90
2023-05-27T12:33:47.288Z,80.80
2023-05-27T12:36:14.094Z,80.70
2023-05-27T12:38:41.659Z,80.70
2023-05-27T12:41:09.219Z,80.80
2023-05-27T12:43:35.883Z,80.30
2023-05-27T12:46:03.244Z,80.10
2023-05-27T12:48:29.960Z,78.70
2023-05-27T12:50:57.303Z,79.50
2023-05-27T12:53:24.222Z,80.20
2023-05-27T12:55:51.747Z,81.70
2023-05-27T12:58:18.767Z,80.50
2023-05-27T13:00:46.523Z,80.10
2023-05-27T13:03:18.463Z,79.70
2023-05-27T13:05:45.971Z,79.00
2023-05-27T13:08:12.713Z,80.20
2023-05-27T13:10:40.074Z,81.00
2023-05-27T13:13:07.021Z,79.40
2023-05-27T13:15:34.539Z,78.20
2023-05-27T13:18:03.610Z,78.20
2023-05-27T13:20:30.964Z,78.60
2023-05-27T13:23:02.160Z,78.10
2023-05-27T13:25:30.697Z,77.70
2023-05-27T13:27:58.117Z,77.90
2023-05-27T13:30:26.672Z,78.60
2023-05-27T13:32:54.871Z,78.00
2023-05-27T13:35:22.269Z,77.60
2023-05-27T13:37:49.722Z,77.60
2023-05-27T13:40:16.906Z,77.40
2023-05-27T13:42:43.667Z,77.50
2023-05-27T13:45:11.041Z,77.40
2023-05-27T13:47:42.157Z,75.70
2023-05-27T13:50:09.389Z,77.60
2023-05-27T13:52:37.051Z,75.20
2023-05-27T13:55:04.519Z,75.10
2023-05-27T13:57:31.963Z,76.20
2023-05-27T13:59:58.966Z,76.50
2023-05-27T14:02:26.354Z,77.10
2023-05-27T14:04:53.231Z,77.90
2023-05-27T14:07:20.722Z,77.90
2023-05-27T14:09:47.481Z,76.30
2023-05-27T14:12:14.812Z,75.80
2023-05-27T14:14:41.890Z,76.20
2023-05-27T14:17:09.734Z,76.00
2023-05-27T14:19:36.896Z,74.80
2023-05-27T14:22:04.446Z,76.60
2023-05-27T14:24:31.243Z,76.50
2023-05-27T14:27:02.655Z,76.60
2023-05-27T14:29:29.316Z,76.80
2023-05-27T14:31:56.721Z,75.60
2023-05-27T14:34:23.459Z,77.00
2023-05-27T14:36:50.870Z,77.40
2023-05-27T14:39:17.824Z,77.50
2023-05-27T14:41:45.257Z,77.40
2023-05-27T14:44:12.073Z,77.50
2023-05-27T14:46:39.553Z,76.60
2023-05-27T14:49:06.861Z,76.40
2023-05-27T14:51:34.265Z,77.00
2023-05-27T14:54:01.031Z,76.60
2023-05-27T14:56:28.422Z,76.30
2023-05-27T14:58:55.231Z,77.20
2023-05-27T15:01:22.791Z,77.20
2023-05-27T15:03:49.737Z,77.50
2023-05-27T15:06:17.274Z,77.00
2023-05-27T15:08:44.011Z,77.20
2023-05-27T15:11:11.468Z,77.00
2023-05-27T15:13:38.285Z,77.60
2023-05-27T15:16:06.194Z,79.10
2023-05-27T15:18:33.237Z,78.50
2023-05-27T15:21:00.571Z,78.50
2023-05-27T15:23:27.329Z,77.90
2023-05-27T15:25:54.818Z,78.30
2023-05-27T15:28:21.658Z,78.00
2023-05-27T15:30:49.196Z,78.50
2023-05-27T15:33:16.016Z,79.20
2023-05-27T15:35:44.498Z,79.50
2023-05-27T15:38:14.852Z,78.80
2023-05-27T15:40:46.440Z,79.10
2023-05-27T15:43:13.785Z,80.60
2023-05-27T15:45:48.961Z,79.30
2023-05-27T15:48:19.428Z,79.40
2023-05-27T15:50:47.939Z,80.10
2023-05-27T15:53:14.861Z,79.10
2023-05-27T15:55:43.209Z,79.20
2023-05-27T15:58:09.895Z,79.90
2023-05-27T16:00:37.279Z,80.50
2023-05-27T16:03:04.069Z,80.90
2023-05-27T16:05:31.528Z,81.20
2023-05-27T16:07:58.221Z,81.00
2023-05-27T16:10:25.553Z,80.60
2023-05-27T16:12:52.312Z,80.90
2023-05-27T16:15:22.626Z,81.30
2023-05-27T16:17:49.515Z,81.60
2023-05-27T16:20:17.379Z,81.30
2023-05-27T16:22:44.206Z,81.40
2023-05-27T16:25:11.657Z,81.40
2023-05-27T16:27:38.392Z,81.90
2023-05-27T16:30:06.333Z,82.40
2023-05-27T16:32:33.155Z,82.20
2023-05-27T16:35:00.659Z,82.50
2023-05-27T16:37:27.417Z,82.90
2023-05-27T16:39:54.845Z,83.00
2023-05-27T16:42:21.593Z,83.80
2023-05-27T16:44:51.161Z,83.40
2023-05-27T16:47:18.265Z,83.70
2023-05-27T16:49:45.545Z,83.70
2023-05-27T16:52:12.233Z,83.80
2023-05-27T16:54:39.581Z,83.60
2023-05-27T16:57:06.404Z,83.10
2023-05-27T16:59:33.778Z,83.90
2023-05-27T17:02:01.555Z,84.00
2023-05-27T17:04:28.873Z,84.10
2023-05-27T17:06:55.665Z,84.20
2023-05-27T17:09:23.187Z,83.70
2023-05-27T17:11:51.286Z,84.20
2023-05-27T17:14:19.515Z,84.10
2023-05-27T17:16:46.230Z,83.80
2023-05-27T17:19:13.751Z,84.30
2023-05-27T17:21:41.313Z,84.60
2023-05-27T17:24:08.751Z,84.80
2023-05-27T17:26:35.618Z,85.50
2023-05-27T17:29:03.023Z,85.70
2023-05-27T17:31:29.708Z,85.60
2023-05-27T17:33:57.027Z,85.60
2023-05-27T17:36:23.845Z,85.60
2023-05-27T17:38:51.152Z,85.80
2023-05-27T17:41:17.938Z,86.30
2023-05-27T17:43:45.334Z,86.60
2023-05-27T17:46:13.253Z,86.60
2023-05-27T17:48:42.610Z,86.20
2023-05-27T17:51:09.505Z,86.40
2023-05-27T17:53:36.499Z,87.00
2023-05-27T17:56:04.477Z,87.40
2023-05-27T17:58:31.184Z,88.00
2023-05-27T18:01:00.577Z,87.80
2023-05-27T18:03:27.569Z,88.00
2023-05-27T18:05:55.128Z,88.20
2023-05-27T18:08:21.787Z,88.00
2023-05-27T18:10:49.342Z,88.70
2023-05-27T18:13:16.176Z,88.90
2023-05-27T18:15:45.548Z,88.90
2023-05-27T18:18:12.331Z,89.00
2023-05-27T18:20:39.833Z,89.40
2023-05-27T18:23:06.647Z,89.30
2023-05-27T18:25:34.060Z,90.00
2023-05-27T18:28:00.868Z,90.00
2023-05-27T18:30:29.510Z,90.20
2023-05-27T18:32:58.923Z,90.00
2023-05-27T18:35:31.674Z,90.30
2023-05-27T18:37:59.319Z,90.40
2023-05-27T18:40:29.369Z,90.50
2023-05-27T18:42:57.138Z,90.60
2023-05-27T18:45:46.262Z,90.70
2023-05-27T18:48:13.003Z,90.90
2023-05-27T18:50:40.599Z,91.40
2023-05-27T18:53:07.283Z,91.30
2023-05-27T18:55:34.611Z,91.30
2023-05-27T18:58:01.570Z,91.40
2023-05-27T19:00:28.889Z,91.60
2023-05-27T19:02:55.846Z,91.80
2023-05-27T19:05:23.193Z,91.80
2023-05-27T19:07:49.929Z,92.00
2023-05-27T19:10:17.255Z,92.20
2023-05-27T19:12:44.005Z,92.40
2023-05-27T19:15:11.870Z,92.40
2023-05-27T19:17:38.805Z,92.60
2023-05-27T19:20:06.811Z,92.80
2023-05-27T19:22:33.724Z,93.00
2023-05-27T19:25:01.224Z,93.10
2023-05-27T19:27:28.240Z,93.50
2023-05-27T19:29:55.669Z,93.60
2023-05-27T19:32:23.024Z,93.80
2023-05-27T19:34:50.311Z,93.90
2023-05-27T19:37:17.247Z,94.10
2023-05-27T19:39:44.613Z,94.50
2023-05-27T19:42:11.362Z,94.40
2023-05-27T19:44:38.712Z,94.60
2023-05-27T19:47:05.590Z,94.80
2023-05-27T19:49:33.067Z,94.90
2023-05-27T19:51:59.794Z,95.10
2023-05-27T19:54:27.124Z,95.30
2023-05-27T19:56:54.764Z,95.40
2023-05-27T19:59:22.163Z,95.60
2023-05-27T20:01:49.801Z,95.70
2023-05-27T20:04:17.157Z,95.80
2023-05-27T20:06:43.981Z,96.20
2023-05-27T20:09:11.294Z,96.10
2023-05-27T20:11:38.001Z,96.00
2023-05-27T20:14:05.376Z,96.30
2023-05-27T20:16:32.106Z,96.40
2023-05-27T20:18:59.411Z,96.50
2023-05-27T20:21:26.485Z,96.70
2023-05-27T20:23:53.809Z,96.70
2023-05-27T20:26:20.531Z,97.10
2023-05-27T20:28:47.869Z,97.00
2023-05-27T20:31:14.667Z,97.10
2023-05-27T20:33:42.032Z,97.20
2023-05-27T20:36:09.104Z,97.40
2023-05-27T20:38:36.434Z,97.30
2023-05-27T20:41:05.964Z,97.20
2023-05-27T20:43:36.135Z,97.00
2023-05-27T20:46:04.463Z,97.10
2023-05-27T20:48:31.936Z,96.90
2023-05-27T20:50:58.693Z,97.00
2023-05-27T20:53:26.054Z,96.90
2023-05-27T20:55:53.183Z,96.90
2023-05-27T20:58:20.193Z,97.00
2023-05-27T21:00:46.845Z,97.10
2023-05-27T21:03:14.291Z,97.10
2023-05-27T21:05:41.170Z,97.00
2023-05-27T21:08:08.522Z,97.10
2023-05-27T21:10:35.409Z,97.00
2023-05-27T21:13:02.836Z,96.90
2023-05-27T21:15:29.500Z,96.90
2023-05-27T21:17:56.943Z,97.00
2023-05-27T21:20:23.862Z,97.20
2023-05-27T21:22:51.193Z,97.20
2023-05-27T21:25:17.927Z,97.30
2023-05-27T21:27:45.274Z,97.40
2023-05-27T21:30:12.464Z,97.50
2023-05-27T21:32:39.909Z,97.70
2023-05-27T21:35:06.950Z,97.90
2023-05-27T21:37:34.255Z,98.10
2023-05-27T21:40:00.992Z,98.50
2023-05-27T21:42:28.274Z,98.90
2023-05-27T21:44:54.969Z,99.00
2023-05-27T21:47:23.075Z,99.30
2023-05-27T21:49:49.935Z,99.70
2023-05-27T21:52:17.286Z,99.90
2023-05-27T21:54:44.025Z,99.90
2023-05-27T21:57:11.370Z,99.90
2023-05-27T21:59:38.058Z,99.90
2023-05-27T22:02:05.692Z,99.90
2023-05-27T22:04:32.372Z,99.90
2023-05-27T22:06:59.712Z,99.90
2023-05-27T22:09:26.855Z,99.90
2023-05-27T22:11:54.220Z,99.90
2023-05-27T22:14:20.979Z,99.90
2023-05-27T22:16:48.427Z,99.90
2023-05-27T22:19:15.882Z,99.90
2023-05-27T22:21:43.215Z,99.90
2023-05-27T22:24:09.904Z,99.90
2023-05-27T22:26:37.672Z,99.90
2023-05-27T22:29:04.512Z,99.90
2023-05-27T22:31:31.731Z,99.90
2023-05-27T22:33:59.227Z,99.90
2023-05-27T22:36:26.366Z,99.90
2023-05-27T22:38:53.211Z,99.90
2023-05-27T22:41:21.252Z,99.90
2023-05-27T22:43:47.873Z,99.90
2023-05-27T22:46:17.842Z,99.90
2023-05-27T22:48:44.749Z,99.90
2023-05-27T22:51:12.264Z,99.90
2023-05-27T22:53:44.223Z,99.90
2023-05-27T22:56:12.514Z,99.90
2023-05-27T22:58:39.819Z,99.90
2023-05-27T23:01:07.160Z,99.90
2023-05-27T23:03:35.175Z,99.90
2023-05-27T23:06:02.121Z,99.90
2023-05-27T23:08:29.530Z,99.90
2023-05-27T23:10:56.596Z,99.90
2023-05-27T23:13:23.373Z,99.90
2023-05-27T23:15:51.290Z,99.90
2023-05-27T23:18:18.196Z,99.90
2023-05-27T23:20:44.930Z,99.90
2023-05-27T23:23:12.485Z,99.90
2023-05-27T23:25:39.212Z,99.90
2023-05-27T23:28:07.266Z,99.90
2023-05-27T23:30:34.144Z,99.90
2023-05-27T23:33:01.621Z,99.90
2023-05-27T23:35:28.334Z,99.90
2023-05-27T23:37:55.676Z,99.90
2023-05-27T23:40:22.626Z,99.90
2023-05-27T23:42:50.144Z,99.90
2023-05-27T23:45:16.971Z,99.90
2023-05-27T23:47:44.523Z,99.90
2023-05-27T23:50:12.356Z,99.90
2023-05-27T23:52:39.980Z,99.90
2023-05-27T23:55:07.210Z,99.90
2023-05-27T23:57:35.000Z,99.90
